Terminal Aerodrome Forecast
Issued by NWS Albuquerque, NM

Home | Current Version | Previous Version | Text Only | Print | Product List | Glossary On
Versions: 1 2 3 4 5 6 7 8 9 10 11 12 13 14
721
FTUS45 KABQ 302146 AAA
TAFABQ
TAF AMD
KABQ 302146Z 3022/3118 22010KT P6SM SCT110 SCT200
     FM310000 24014KT P6SM VCSH SCT120 BKN200
      TEMPO 3100/3102 VRB20G30KT -SHRA BKN110
     FM310500 09008KT P6SM BKN140
     FM311000 03006KT P6SM SCT150=

USA.gov is the U.S. government's official web portal to all federal, state and local government web resources and services.